sensor_id;sensor_type;location;lat;lon;timestamp;temperature;humidity
35960;DHT22;22043;50.970;7.192;2022-12-18T00:01:18;-1.20;99.90
35960;DHT22;22043;50.970;7.192;2022-12-18T00:03:44;-1.20;99.90
35960;DHT22;22043;50.970;7.192;2022-12-18T00:06:09;-1.20;99.90
35960;DHT22;22043;50.970;7.192;2022-12-18T00:08:35;-1.20;99.90
35960;DHT22;22043;50.970;7.192;2022-12-18T00:11:05;-1.20;99.90
35960;DHT22;22043;50.970;7.192;2022-12-18T00:13:31;-1.20;99.90
35960;DHT22;22043;50.970;7.192;2022-12-18T00:16:02;-1.30;99.90
35960;DHT22;22043;50.970;7.192;2022-12-18T00:18:28;-1.20;99.90
35960;DHT22;22043;50.970;7.192;2022-12-18T00:20:53;-1.30;99.90
35960;DHT22;22043;50.970;7.192;2022-12-18T00:23:19;-1.20;99.90
35960;DHT22;22043;50.970;7.192;2022-12-18T00:25:44;-1.20;99.90
35960;DHT22;22043;50.970;7.192;2022-12-18T00:28:10;-1.30;99.90
35960;DHT22;22043;50.970;7.192;2022-12-18T00:30:36;-1.20;99.90
35960;DHT22;22043;50.970;7.192;2022-12-18T00:33:01;-1.20;99.90
35960;DHT22;22043;50.970;7.192;2022-12-18T00:35:27;-1.20;99.90
35960;DHT22;22043;50.970;7.192;2022-12-18T00:37:53;-1.20;99.90
35960;DHT22;22043;50.970;7.192;2022-12-18T00:40:18;-1.10;99.90
35960;DHT22;22043;50.970;7.192;2022-12-18T00:42:47;-1.10;99.90
35960;DHT22;22043;50.970;7.192;2022-12-18T00:45:26;-1.10;99.90
35960;DHT22;22043;50.970;7.192;2022-12-18T00:47:52;-1.10;99.90
35960;DHT22;22043;50.970;7.192;2022-12-18T00:50:18;-1.10;99.90
35960;DHT22;22043;50.970;7.192;2022-12-18T00:52:44;-1.10;99.90
35960;DHT22;22043;50.970;7.192;2022-12-18T00:55:10;-1.20;99.90
35960;DHT22;22043;50.970;7.192;2022-12-18T00:57:36;-1.20;99.90
35960;DHT22;22043;50.970;7.192;2022-12-18T01:00:04;-1.20;99.90
35960;DHT22;22043;50.970;7.192;2022-12-18T01:02:30;-1.20;99.90
35960;DHT22;22043;50.970;7.192;2022-12-18T01:04:56;-1.20;99.90
35960;DHT22;22043;50.970;7.192;2022-12-18T01:07:22;-1.30;99.90
35960;DHT22;22043;50.970;7.192;2022-12-18T01:09:48;-1.20;99.90
35960;DHT22;22043;50.970;7.192;2022-12-18T01:12:13;-1.20;99.90
35960;DHT22;22043;50.970;7.192;2022-12-18T01:14:39;-1.20;99.90
35960;DHT22;22043;50.970;7.192;2022-12-18T01:17:05;-1.10;99.90
35960;DHT22;22043;50.970;7.192;2022-12-18T01:19:32;-1.20;99.90
35960;DHT22;22043;50.970;7.192;2022-12-18T01:21:58;-1.10;99.90
35960;DHT22;22043;50.970;7.192;2022-12-18T01:24:24;-1.10;99.90
35960;DHT22;22043;50.970;7.192;2022-12-18T01:26:50;-1.10;99.90
35960;DHT22;22043;50.970;7.192;2022-12-18T01:29:15;-1.10;99.90
35960;DHT22;22043;50.970;7.192;2022-12-18T01:31:41;-1.10;99.90
35960;DHT22;22043;50.970;7.192;2022-12-18T01:34:07;-1.00;99.90
35960;DHT22;22043;50.970;7.192;2022-12-18T01:36:36;-1.00;99.90
35960;DHT22;22043;50.970;7.192;2022-12-18T01:39:08;-1.00;99.90
35960;DHT22;22043;50.970;7.192;2022-12-18T01:41:35;-1.00;99.90
35960;DHT22;22043;50.970;7.192;2022-12-18T01:44:53;-1.00;99.90
35960;DHT22;22043;50.970;7.192;2022-12-18T01:50:18;-1.00;99.90
35960;DHT22;22043;50.970;7.192;2022-12-18T01:55:47;-1.10;99.90
35960;DHT22;22043;50.970;7.192;2022-12-18T01:58:14;-1.10;99.90
35960;DHT22;22043;50.970;7.192;2022-12-18T02:00:40;-1.10;99.90
35960;DHT22;22043;50.970;7.192;2022-12-18T02:03:06;-1.10;99.90
35960;DHT22;22043;50.970;7.192;2022-12-18T02:05:38;-1.10;99.90
35960;DHT22;22043;50.970;7.192;2022-12-18T02:08:10;-1.10;99.90
35960;DHT22;22043;50.970;7.192;2022-12-18T02:10:58;-1.10;99.90
35960;DHT22;22043;50.970;7.192;2022-12-18T02:18:40;-1.10;99.90
35960;DHT22;22043;50.970;7.192;2022-12-18T02:24:16;-1.10;99.90
35960;DHT22;22043;50.970;7.192;2022-12-18T02:26:50;-1.10;99.90
35960;DHT22;22043;50.970;7.192;2022-12-18T02:29:33;-1.10;99.90
35960;DHT22;22043;50.970;7.192;2022-12-18T02:32:02;-1.10;99.90
35960;DHT22;22043;50.970;7.192;2022-12-18T02:34:33;-1.10;99.90
35960;DHT22;22043;50.970;7.192;2022-12-18T02:37:02;-1.10;99.90
35960;DHT22;22043;50.970;7.192;2022-12-18T02:39:30;-1.10;99.90
35960;DHT22;22043;50.970;7.192;2022-12-18T02:42:02;-1.10;99.90
35960;DHT22;22043;50.970;7.192;2022-12-18T02:44:34;-1.10;99.90
35960;DHT22;22043;50.970;7.192;2022-12-18T02:47:01;-1.10;99.90
35960;DHT22;22043;50.970;7.192;2022-12-18T02:49:31;-1.00;99.90
35960;DHT22;22043;50.970;7.192;2022-12-18T02:52:39;-1.00;99.90
35960;DHT22;22043;50.970;7.192;2022-12-18T02:55:38;-1.00;99.90
35960;DHT22;22043;50.970;7.192;2022-12-18T03:01:27;-1.10;99.90
35960;DHT22;22043;50.970;7.192;2022-12-18T03:03:59;-1.10;99.90
35960;DHT22;22043;50.970;7.192;2022-12-18T03:06:35;-1.10;99.90
35960;DHT22;22043;50.970;7.192;2022-12-18T03:12:35;-1.20;99.90
35960;DHT22;22043;50.970;7.192;2022-12-18T03:15:12;-1.10;99.90
35960;DHT22;22043;50.970;7.192;2022-12-18T03:17:42;-1.20;99.90
35960;DHT22;22043;50.970;7.192;2022-12-18T03:20:17;-1.20;99.90
35960;DHT22;22043;50.970;7.192;2022-12-18T03:22:46;-1.10;99.90
35960;DHT22;22043;50.970;7.192;2022-12-18T03:25:15;-1.10;99.90
35960;DHT22;22043;50.970;7.192;2022-12-18T03:27:46;-1.10;99.90
35960;DHT22;22043;50.970;7.192;2022-12-18T03:30:17;-1.10;99.90
35960;DHT22;22043;50.970;7.192;2022-12-18T03:32:52;-1.20;99.90
35960;DHT22;22043;50.970;7.192;2022-12-18T03:35:29;-1.10;99.90
35960;DHT22;22043;50.970;7.192;2022-12-18T03:37:57;-1.20;99.90
35960;DHT22;22043;50.970;7.192;2022-12-18T03:40:29;-1.10;99.90
35960;DHT22;22043;50.970;7.192;2022-12-18T03:43:07;-1.10;99.90
35960;DHT22;22043;50.970;7.192;2022-12-18T03:45:42;-1.10;99.90
35960;DHT22;22043;50.970;7.192;2022-12-18T03:48:20;-1.10;99.90
35960;DHT22;22043;50.970;7.192;2022-12-18T03:50:57;-1.10;99.90
35960;DHT22;22043;50.970;7.192;2022-12-18T03:53:47;-1.10;99.90
35960;DHT22;22043;50.970;7.192;2022-12-18T03:56:20;-1.10;99.90
35960;DHT22;22043;50.970;7.192;2022-12-18T03:58:48;-1.10;99.90
35960;DHT22;22043;50.970;7.192;2022-12-18T04:01:23;-1.10;99.90
35960;DHT22;22043;50.970;7.192;2022-12-18T04:03:51;-1.10;99.90
35960;DHT22;22043;50.970;7.192;2022-12-18T04:06:19;-1.10;99.90
35960;DHT22;22043;50.970;7.192;2022-12-18T04:08:46;-1.10;99.90
35960;DHT22;22043;50.970;7.192;2022-12-18T04:11:15;-1.10;99.90
35960;DHT22;22043;50.970;7.192;2022-12-18T04:13:42;-1.10;99.90
35960;DHT22;22043;50.970;7.192;2022-12-18T04:16:15;-1.10;99.90
35960;DHT22;22043;50.970;7.192;2022-12-18T04:18:42;-1.10;99.90
35960;DHT22;22043;50.970;7.192;2022-12-18T04:21:10;-1.10;99.90
35960;DHT22;22043;50.970;7.192;2022-12-18T04:23:36;-1.20;99.90
35960;DHT22;22043;50.970;7.192;2022-12-18T04:26:02;-1.20;99.90
35960;DHT22;22043;50.970;7.192;2022-12-18T04:28:53;-1.20;99.90
35960;DHT22;22043;50.970;7.192;2022-12-18T04:31:20;-1.20;99.90
35960;DHT22;22043;50.970;7.192;2022-12-18T04:33:46;-1.10;99.90
35960;DHT22;22043;50.970;7.192;2022-12-18T04:36:13;-1.10;99.90
35960;DHT22;22043;50.970;7.192;2022-12-18T04:38:39;-1.10;99.90
35960;DHT22;22043;50.970;7.192;2022-12-18T04:41:09;-1.10;99.90
35960;DHT22;22043;50.970;7.192;2022-12-18T04:43:35;-1.10;99.90
35960;DHT22;22043;50.970;7.192;2022-12-18T04:46:02;-1.10;99.90
35960;DHT22;22043;50.970;7.192;2022-12-18T04:48:28;-1.10;99.90
35960;DHT22;22043;50.970;7.192;2022-12-18T04:50:54;-1.10;99.90
35960;DHT22;22043;50.970;7.192;2022-12-18T04:53:20;-1.10;99.90
35960;DHT22;22043;50.970;7.192;2022-12-18T04:55:45;-1.10;99.90
35960;DHT22;22043;50.970;7.192;2022-12-18T04:58:11;-1.10;99.90
35960;DHT22;22043;50.970;7.192;2022-12-18T05:00:36;-1.10;99.90
35960;DHT22;22043;50.970;7.192;2022-12-18T05:03:02;-1.10;99.90
35960;DHT22;22043;50.970;7.192;2022-12-18T05:05:28;-1.10;99.90
35960;DHT22;22043;50.970;7.192;2022-12-18T05:07:54;-1.20;99.90
35960;DHT22;22043;50.970;7.192;2022-12-18T05:10:19;-1.10;99.90
35960;DHT22;22043;50.970;7.192;2022-12-18T05:12:45;-1.20;99.90
35960;DHT22;22043;50.970;7.192;2022-12-18T05:15:30;-1.20;99.90
35960;DHT22;22043;50.970;7.192;2022-12-18T05:17:57;-1.20;99.90
35960;DHT22;22043;50.970;7.192;2022-12-18T05:20:23;-1.10;99.90
35960;DHT22;22043;50.970;7.192;2022-12-18T05:22:50;-1.20;99.90
35960;DHT22;22043;50.970;7.192;2022-12-18T05:25:16;-1.20;99.90
35960;DHT22;22043;50.970;7.192;2022-12-18T05:27:42;-1.20;99.90
35960;DHT22;22043;50.970;7.192;2022-12-18T05:30:08;-1.20;99.90
35960;DHT22;22043;50.970;7.192;2022-12-18T05:32:34;-1.20;99.90
35960;DHT22;22043;50.970;7.192;2022-12-18T05:35:00;-1.20;99.90
35960;DHT22;22043;50.970;7.192;2022-12-18T05:37:25;-1.20;99.90
35960;DHT22;22043;50.970;7.192;2022-12-18T05:39:51;-1.30;99.90
35960;DHT22;22043;50.970;7.192;2022-12-18T05:42:17;-1.30;99.90
35960;DHT22;22043;50.970;7.192;2022-12-18T05:44:43;-1.30;99.90
35960;DHT22;22043;50.970;7.192;2022-12-18T05:47:09;-1.30;99.90
35960;DHT22;22043;50.970;7.192;2022-12-18T05:49:35;-1.30;99.90
35960;DHT22;22043;50.970;7.192;2022-12-18T05:52:01;-1.30;99.90
35960;DHT22;22043;50.970;7.192;2022-12-18T05:54:27;-1.20;99.90
35960;DHT22;22043;50.970;7.192;2022-12-18T05:56:53;-1.30;99.90
35960;DHT22;22043;50.970;7.192;2022-12-18T05:59:19;-1.30;99.90
35960;DHT22;22043;50.970;7.192;2022-12-18T06:01:46;-1.30;99.90
35960;DHT22;22043;50.970;7.192;2022-12-18T06:04:11;-1.30;99.90
35960;DHT22;22043;50.970;7.192;2022-12-18T06:06:37;-1.20;99.90
35960;DHT22;22043;50.970;7.192;2022-12-18T06:09:03;-1.30;99.90
35960;DHT22;22043;50.970;7.192;2022-12-18T06:11:34;-1.20;99.90
35960;DHT22;22043;50.970;7.192;2022-12-18T06:14:00;-1.20;99.90
35960;DHT22;22043;50.970;7.192;2022-12-18T06:16:27;-1.20;99.90
35960;DHT22;22043;50.970;7.192;2022-12-18T06:18:57;-1.20;99.90
35960;DHT22;22043;50.970;7.192;2022-12-18T06:21:23;-1.20;99.90
35960;DHT22;22043;50.970;7.192;2022-12-18T06:23:48;-1.20;99.90
35960;DHT22;22043;50.970;7.192;2022-12-18T06:26:14;-1.20;99.90
35960;DHT22;22043;50.970;7.192;2022-12-18T06:28:40;-1.20;99.90
35960;DHT22;22043;50.970;7.192;2022-12-18T06:31:07;-1.20;99.90
35960;DHT22;22043;50.970;7.192;2022-12-18T06:33:33;-1.20;99.90
35960;DHT22;22043;50.970;7.192;2022-12-18T06:36:10;-1.30;99.90
35960;DHT22;22043;50.970;7.192;2022-12-18T06:38:38;-1.20;99.90
35960;DHT22;22043;50.970;7.192;2022-12-18T06:41:13;-1.20;99.90
35960;DHT22;22043;50.970;7.192;2022-12-18T06:43:39;-1.20;99.90
35960;DHT22;22043;50.970;7.192;2022-12-18T06:46:05;-1.20;99.90
35960;DHT22;22043;50.970;7.192;2022-12-18T06:48:30;-1.10;99.90
35960;DHT22;22043;50.970;7.192;2022-12-18T06:50:56;-1.20;99.90
35960;DHT22;22043;50.970;7.192;2022-12-18T06:53:22;-1.10;99.90
35960;DHT22;22043;50.970;7.192;2022-12-18T06:55:47;-1.10;99.90
35960;DHT22;22043;50.970;7.192;2022-12-18T06:58:13;-1.20;99.90
35960;DHT22;22043;50.970;7.192;2022-12-18T07:00:39;-1.20;99.90
35960;DHT22;22043;50.970;7.192;2022-12-18T07:03:04;-1.20;99.90
35960;DHT22;22043;50.970;7.192;2022-12-18T07:05:30;-1.10;99.90
35960;DHT22;22043;50.970;7.192;2022-12-18T07:07:55;-1.20;99.90
35960;DHT22;22043;50.970;7.192;2022-12-18T07:10:21;-1.20;99.90
35960;DHT22;22043;50.970;7.192;2022-12-18T07:12:47;-1.30;99.90
35960;DHT22;22043;50.970;7.192;2022-12-18T07:15:12;-1.20;99.90
35960;DHT22;22043;50.970;7.192;2022-12-18T07:17:38;-1.20;99.90
35960;DHT22;22043;50.970;7.192;2022-12-18T07:20:04;-1.20;99.90
35960;DHT22;22043;50.970;7.192;2022-12-18T07:22:30;-1.20;99.90
35960;DHT22;22043;50.970;7.192;2022-12-18T07:24:56;-1.20;99.90
35960;DHT22;22043;50.970;7.192;2022-12-18T07:27:22;-1.20;99.90
35960;DHT22;22043;50.970;7.192;2022-12-18T07:29:48;-1.20;99.90
35960;DHT22;22043;50.970;7.192;2022-12-18T07:32:14;-1.20;99.90
35960;DHT22;22043;50.970;7.192;2022-12-18T07:34:39;-1.20;99.90
35960;DHT22;22043;50.970;7.192;2022-12-18T07:37:05;-1.20;99.90
35960;DHT22;22043;50.970;7.192;2022-12-18T07:39:31;-1.20;99.90
35960;DHT22;22043;50.970;7.192;2022-12-18T07:41:56;-1.20;99.90
35960;DHT22;22043;50.970;7.192;2022-12-18T07:44:40;-1.20;99.90
35960;DHT22;22043;50.970;7.192;2022-12-18T07:47:06;-1.20;99.90
35960;DHT22;22043;50.970;7.192;2022-12-18T07:49:32;-1.20;99.90
35960;DHT22;22043;50.970;7.192;2022-12-18T07:51:58;-1.20;99.90
35960;DHT22;22043;50.970;7.192;2022-12-18T07:54:24;-1.20;99.90
35960;DHT22;22043;50.970;7.192;2022-12-18T07:56:51;-1.20;99.90
35960;DHT22;22043;50.970;7.192;2022-12-18T07:59:17;-1.20;99.90
35960;DHT22;22043;50.970;7.192;2022-12-18T08:01:43;-1.10;99.90
35960;DHT22;22043;50.970;7.192;2022-12-18T08:04:09;-1.10;99.90
35960;DHT22;22043;50.970;7.192;2022-12-18T08:06:35;-1.10;99.90
35960;DHT22;22043;50.970;7.192;2022-12-18T08:09:01;-1.20;99.90
35960;DHT22;22043;50.970;7.192;2022-12-18T08:11:28;-1.10;99.90
35960;DHT22;22043;50.970;7.192;2022-12-18T08:13:54;-1.10;99.90
35960;DHT22;22043;50.970;7.192;2022-12-18T08:16:21;-1.10;99.90
35960;DHT22;22043;50.970;7.192;2022-12-18T08:18:47;-1.10;99.90
35960;DHT22;22043;50.970;7.192;2022-12-18T08:21:14;-1.10;99.90
35960;DHT22;22043;50.970;7.192;2022-12-18T08:23:40;-1.00;99.90
35960;DHT22;22043;50.970;7.192;2022-12-18T08:26:06;-0.90;99.90
35960;DHT22;22043;50.970;7.192;2022-12-18T08:28:32;-0.90;99.90
35960;DHT22;22043;50.970;7.192;2022-12-18T08:30:58;-0.90;99.90
35960;DHT22;22043;50.970;7.192;2022-12-18T08:33:24;-0.80;99.90
35960;DHT22;22043;50.970;7.192;2022-12-18T08:35:49;-0.80;99.90
35960;DHT22;22043;50.970;7.192;2022-12-18T08:38:15;-0.80;99.90
35960;DHT22;22043;50.970;7.192;2022-12-18T08:40:41;-0.90;99.90
35960;DHT22;22043;50.970;7.192;2022-12-18T08:43:09;-0.80;99.90
35960;DHT22;22043;50.970;7.192;2022-12-18T08:45:53;-0.70;99.90
35960;DHT22;22043;50.970;7.192;2022-12-18T08:48:19;-0.70;99.90
35960;DHT22;22043;50.970;7.192;2022-12-18T08:50:57;-0.70;99.90
35960;DHT22;22043;50.970;7.192;2022-12-18T08:53:23;-0.70;99.90
35960;DHT22;22043;50.970;7.192;2022-12-18T08:55:52;-0.70;99.90
35960;DHT22;22043;50.970;7.192;2022-12-18T08:58:18;-0.70;99.90
35960;DHT22;22043;50.970;7.192;2022-12-18T09:00:44;-0.60;99.90
35960;DHT22;22043;50.970;7.192;2022-12-18T09:03:19;-0.60;99.90
35960;DHT22;22043;50.970;7.192;2022-12-18T09:05:47;-0.50;99.90
35960;DHT22;22043;50.970;7.192;2022-12-18T09:08:13;-0.50;99.90
35960;DHT22;22043;50.970;7.192;2022-12-18T09:10:46;-0.40;99.90
35960;DHT22;22043;50.970;7.192;2022-12-18T09:13:13;-0.40;99.90
35960;DHT22;22043;50.970;7.192;2022-12-18T09:15:50;-0.30;99.90
35960;DHT22;22043;50.970;7.192;2022-12-18T09:18:18;-0.30;99.90
35960;DHT22;22043;50.970;7.192;2022-12-18T09:20:44;-0.30;99.90
35960;DHT22;22043;50.970;7.192;2022-12-18T09:23:11;-0.30;99.90
35960;DHT22;22043;50.970;7.192;2022-12-18T09:25:37;-0.30;99.90
35960;DHT22;22043;50.970;7.192;2022-12-18T09:28:10;-0.20;99.90
35960;DHT22;22043;50.970;7.192;2022-12-18T09:30:41;-0.20;99.90
35960;DHT22;22043;50.970;7.192;2022-12-18T09:33:07;-0.20;99.90
35960;DHT22;22043;50.970;7.192;2022-12-18T09:35:35;-0.20;99.90
35960;DHT22;22043;50.970;7.192;2022-12-18T09:38:04;-0.20;99.90
35960;DHT22;22043;50.970;7.192;2022-12-18T09:40:35;-0.10;99.90
35960;DHT22;22043;50.970;7.192;2022-12-18T09:43:04;-0.10;99.90
35960;DHT22;22043;50.970;7.192;2022-12-18T09:45:40;-0.10;99.90
35960;DHT22;22043;50.970;7.192;2022-12-18T09:48:10;-0.10;99.90
35960;DHT22;22043;50.970;7.192;2022-12-18T09:50:40;0.00;99.90
35960;DHT22;22043;50.970;7.192;2022-12-18T09:53:12;0.00;99.90
35960;DHT22;22043;50.970;7.192;2022-12-18T09:55:42;0.10;99.90
35960;DHT22;22043;50.970;7.192;2022-12-18T09:58:30;0.10;99.90
35960;DHT22;22043;50.970;7.192;2022-12-18T10:00:57;0.20;99.90
35960;DHT22;22043;50.970;7.192;2022-12-18T10:03:23;0.20;99.90
35960;DHT22;22043;50.970;7.192;2022-12-18T10:06:14;0.30;99.90
35960;DHT22;22043;50.970;7.192;2022-12-18T10:11:27;0.30;99.90
35960;DHT22;22043;50.970;7.192;2022-12-18T10:15:04;0.30;99.90
35960;DHT22;22043;50.970;7.192;2022-12-18T10:20:09;0.40;99.90
35960;DHT22;22043;50.970;7.192;2022-12-18T10:22:42;0.40;99.90
35960;DHT22;22043;50.970;7.192;2022-12-18T10:27:43;0.60;99.90
35960;DHT22;22043;50.970;7.192;2022-12-18T10:30:18;0.60;99.90
35960;DHT22;22043;50.970;7.192;2022-12-18T10:32:44;0.60;99.90
35960;DHT22;22043;50.970;7.192;2022-12-18T10:35:21;0.60;99.90
35960;DHT22;22043;50.970;7.192;2022-12-18T10:40:56;0.70;99.90
35960;DHT22;22043;50.970;7.192;2022-12-18T10:46:18;0.80;99.90
35960;DHT22;22043;50.970;7.192;2022-12-18T10:51:33;0.90;99.90
35960;DHT22;22043;50.970;7.192;2022-12-18T10:54:22;0.90;99.90
35960;DHT22;22043;50.970;7.192;2022-12-18T10:56:49;0.90;99.90
35960;DHT22;22043;50.970;7.192;2022-12-18T10:59:16;0.90;99.90
35960;DHT22;22043;50.970;7.192;2022-12-18T11:04:34;0.90;99.90
35960;DHT22;22043;50.970;7.192;2022-12-18T11:09:33;0.80;99.90
35960;DHT22;22043;50.970;7.192;2022-12-18T11:17:21;0.90;99.90
35960;DHT22;22043;50.970;7.192;2022-12-18T11:20:00;1.00;99.90
35960;DHT22;22043;50.970;7.192;2022-12-18T11:22:28;0.90;99.90
35960;DHT22;22043;50.970;7.192;2022-12-18T11:27:48;1.00;99.90
35960;DHT22;22043;50.970;7.192;2022-12-18T11:30:28;0.90;99.90
35960;DHT22;22043;50.970;7.192;2022-12-18T11:33:01;0.90;99.90
35960;DHT22;22043;50.970;7.192;2022-12-18T11:38:24;0.80;99.90
35960;DHT22;22043;50.970;7.192;2022-12-18T11:41:00;0.80;99.90
35960;DHT22;22043;50.970;7.192;2022-12-18T11:43:38;0.90;99.90
35960;DHT22;22043;50.970;7.192;2022-12-18T11:46:23;0.90;99.90
35960;DHT22;22043;50.970;7.192;2022-12-18T11:48:54;0.90;99.90
35960;DHT22;22043;50.970;7.192;2022-12-18T11:51:33;0.90;99.90
35960;DHT22;22043;50.970;7.192;2022-12-18T11:54:01;0.90;99.90
35960;DHT22;22043;50.970;7.192;2022-12-18T11:56:42;0.90;99.90
35960;DHT22;22043;50.970;7.192;2022-12-18T11:59:35;0.90;99.90
35960;DHT22;22043;50.970;7.192;2022-12-18T12:08:02;0.90;99.90
35960;DHT22;22043;50.970;7.192;2022-12-18T12:13:40;1.10;99.90
35960;DHT22;22043;50.970;7.192;2022-12-18T12:16:16;1.10;99.90
35960;DHT22;22043;50.970;7.192;2022-12-18T12:21:33;1.10;99.90
35960;DHT22;22043;50.970;7.192;2022-12-18T12:27:26;1.10;99.90
35960;DHT22;22043;50.970;7.192;2022-12-18T12:38:18;1.20;99.90
35960;DHT22;22043;50.970;7.192;2022-12-18T12:41:09;1.20;99.90
35960;DHT22;22043;50.970;7.192;2022-12-18T12:44:00;1.20;99.90
35960;DHT22;22043;50.970;7.192;2022-12-18T12:46:27;1.20;99.90
35960;DHT22;22043;50.970;7.192;2022-12-18T12:48:56;1.10;99.90
35960;DHT22;22043;50.970;7.192;2022-12-18T12:51:32;1.00;99.90
35960;DHT22;22043;50.970;7.192;2022-12-18T12:54:00;1.00;99.90
35960;DHT22;22043;50.970;7.192;2022-12-18T12:56:37;0.90;99.90
35960;DHT22;22043;50.970;7.192;2022-12-18T12:59:22;0.80;99.90
35960;DHT22;22043;50.970;7.192;2022-12-18T13:01:59;0.80;99.90
35960;DHT22;22043;50.970;7.192;2022-12-18T13:07:26;0.80;99.90
35960;DHT22;22043;50.970;7.192;2022-12-18T13:15:41;0.70;99.90
35960;DHT22;22043;50.970;7.192;2022-12-18T13:28:51;0.60;99.90
35960;DHT22;22043;50.970;7.192;2022-12-18T13:34:19;0.50;99.90
35960;DHT22;22043;50.970;7.192;2022-12-18T13:36:46;0.50;99.90
35960;DHT22;22043;50.970;7.192;2022-12-18T13:39:30;0.40;99.90
35960;DHT22;22043;50.970;7.192;2022-12-18T13:44:33;0.40;99.90
35960;DHT22;22043;50.970;7.192;2022-12-18T13:47:02;0.40;99.90
35960;DHT22;22043;50.970;7.192;2022-12-18T13:49:38;0.40;99.90
35960;DHT22;22043;50.970;7.192;2022-12-18T13:52:22;0.40;99.90
35960;DHT22;22043;50.970;7.192;2022-12-18T13:54:55;0.40;99.90
35960;DHT22;22043;50.970;7.192;2022-12-18T13:57:30;0.50;99.90
35960;DHT22;22043;50.970;7.192;2022-12-18T13:59:57;0.50;99.90
35960;DHT22;22043;50.970;7.192;2022-12-18T14:02:28;0.40;99.90
35960;DHT22;22043;50.970;7.192;2022-12-18T14:04:54;0.40;99.90
35960;DHT22;22043;50.970;7.192;2022-12-18T14:07:25;0.40;99.90
35960;DHT22;22043;50.970;7.192;2022-12-18T14:09:52;0.40;99.90
35960;DHT22;22043;50.970;7.192;2022-12-18T14:12:21;0.40;99.90
35960;DHT22;22043;50.970;7.192;2022-12-18T14:17:45;0.40;99.90
35960;DHT22;22043;50.970;7.192;2022-12-18T14:20:15;0.40;99.90
35960;DHT22;22043;50.970;7.192;2022-12-18T14:22:46;0.40;99.90
35960;DHT22;22043;50.970;7.192;2022-12-18T14:27:45;0.40;99.90
35960;DHT22;22043;50.970;7.192;2022-12-18T14:35:33;0.30;99.90
35960;DHT22;22043;50.970;7.192;2022-12-18T14:38:21;0.30;99.90
35960;DHT22;22043;50.970;7.192;2022-12-18T14:40:51;0.30;99.90
35960;DHT22;22043;50.970;7.192;2022-12-18T14:43:17;0.20;99.90
35960;DHT22;22043;50.970;7.192;2022-12-18T14:45:44;0.20;99.90
35960;DHT22;22043;50.970;7.192;2022-12-18T14:50:37;0.20;99.90
35960;DHT22;22043;50.970;7.192;2022-12-18T14:53:03;0.10;99.90
35960;DHT22;22043;50.970;7.192;2022-12-18T14:55:29;0.20;99.90
35960;DHT22;22043;50.970;7.192;2022-12-18T14:57:55;0.20;99.90
35960;DHT22;22043;50.970;7.192;2022-12-18T15:00:24;0.20;99.90
35960;DHT22;22043;50.970;7.192;2022-12-18T15:02:53;0.20;99.90
35960;DHT22;22043;50.970;7.192;2022-12-18T15:05:24;0.20;99.90
35960;DHT22;22043;50.970;7.192;2022-12-18T15:07:52;0.20;99.90
35960;DHT22;22043;50.970;7.192;2022-12-18T15:10:26;0.30;99.90
35960;DHT22;22043;50.970;7.192;2022-12-18T15:17:59;0.20;99.90
35960;DHT22;22043;50.970;7.192;2022-12-18T15:20:31;0.20;99.90
35960;DHT22;22043;50.970;7.192;2022-12-18T15:22:58;0.10;99.90
35960;DHT22;22043;50.970;7.192;2022-12-18T15:25:36;0.20;99.90
35960;DHT22;22043;50.970;7.192;2022-12-18T15:28:04;0.10;99.90
35960;DHT22;22043;50.970;7.192;2022-12-18T15:31:03;0.10;99.90
35960;DHT22;22043;50.970;7.192;2022-12-18T15:33:40;0.10;99.90
35960;DHT22;22043;50.970;7.192;2022-12-18T15:36:15;0.10;99.90
35960;DHT22;22043;50.970;7.192;2022-12-18T15:38:41;0.10;99.90
35960;DHT22;22043;50.970;7.192;2022-12-18T15:41:18;0.10;99.90
35960;DHT22;22043;50.970;7.192;2022-12-18T15:43:46;0.00;99.90
35960;DHT22;22043;50.970;7.192;2022-12-18T15:46:20;0.00;99.90
35960;DHT22;22043;50.970;7.192;2022-12-18T15:48:48;0.00;99.90
35960;DHT22;22043;50.970;7.192;2022-12-18T15:51:21;0.00;99.90
35960;DHT22;22043;50.970;7.192;2022-12-18T15:53:50;0.00;99.90
35960;DHT22;22043;50.970;7.192;2022-12-18T15:56:16;0.00;99.90
35960;DHT22;22043;50.970;7.192;2022-12-18T15:59:01;0.00;99.90
35960;DHT22;22043;50.970;7.192;2022-12-18T16:01:29;0.00;99.90
35960;DHT22;22043;50.970;7.192;2022-12-18T16:03:55;0.00;99.90
35960;DHT22;22043;50.970;7.192;2022-12-18T16:06:24;0.00;99.90
35960;DHT22;22043;50.970;7.192;2022-12-18T16:08:50;0.00;99.90
35960;DHT22;22043;50.970;7.192;2022-12-18T16:11:25;-0.10;99.90
35960;DHT22;22043;50.970;7.192;2022-12-18T16:14:16;-0.10;99.90
35960;DHT22;22043;50.970;7.192;2022-12-18T16:16:44;-0.10;99.90
35960;DHT22;22043;50.970;7.192;2022-12-18T16:19:10;-0.10;99.90
35960;DHT22;22043;50.970;7.192;2022-12-18T16:21:35;-0.10;99.90
35960;DHT22;22043;50.970;7.192;2022-12-18T16:24:01;0.00;99.90
35960;DHT22;22043;50.970;7.192;2022-12-18T16:26:27;0.00;99.90
35960;DHT22;22043;50.970;7.192;2022-12-18T16:28:52;0.00;99.90
35960;DHT22;22043;50.970;7.192;2022-12-18T16:31:18;-0.10;99.90
35960;DHT22;22043;50.970;7.192;2022-12-18T16:33:44;0.00;99.90
35960;DHT22;22043;50.970;7.192;2022-12-18T16:36:10;0.00;99.90
35960;DHT22;22043;50.970;7.192;2022-12-18T16:38:35;0.00;99.90
35960;DHT22;22043;50.970;7.192;2022-12-18T16:41:01;0.00;99.90
35960;DHT22;22043;50.970;7.192;2022-12-18T16:43:45;0.10;99.90
35960;DHT22;22043;50.970;7.192;2022-12-18T16:46:11;0.00;99.90
35960;DHT22;22043;50.970;7.192;2022-12-18T16:48:36;0.10;99.90
35960;DHT22;22043;50.970;7.192;2022-12-18T16:51:04;0.10;99.90
35960;DHT22;22043;50.970;7.192;2022-12-18T16:53:31;0.10;99.90
35960;DHT22;22043;50.970;7.192;2022-12-18T16:55:57;0.10;99.90
35960;DHT22;22043;50.970;7.192;2022-12-18T16:58:23;0.00;99.90
35960;DHT22;22043;50.970;7.192;2022-12-18T17:00:48;-0.10;99.90
35960;DHT22;22043;50.970;7.192;2022-12-18T17:03:14;-0.10;99.90
35960;DHT22;22043;50.970;7.192;2022-12-18T17:05:40;-0.10;99.90
35960;DHT22;22043;50.970;7.192;2022-12-18T17:08:05;-0.10;99.90
35960;DHT22;22043;50.970;7.192;2022-12-18T17:10:33;-0.10;99.90
35960;DHT22;22043;50.970;7.192;2022-12-18T17:12:59;-0.10;99.90
35960;DHT22;22043;50.970;7.192;2022-12-18T17:15:25;-0.10;99.90
35960;DHT22;22043;50.970;7.192;2022-12-18T17:17:51;0.00;99.90
35960;DHT22;22043;50.970;7.192;2022-12-18T17:20:16;-0.10;99.90
35960;DHT22;22043;50.970;7.192;2022-12-18T17:22:42;-0.10;99.90
35960;DHT22;22043;50.970;7.192;2022-12-18T17:25:08;-0.10;99.90
35960;DHT22;22043;50.970;7.192;2022-12-18T17:27:34;0.00;99.90
35960;DHT22;22043;50.970;7.192;2022-12-18T17:29:59;-0.10;99.90
35960;DHT22;22043;50.970;7.192;2022-12-18T17:32:25;-0.10;99.90
35960;DHT22;22043;50.970;7.192;2022-12-18T17:34:50;-0.10;99.90
35960;DHT22;22043;50.970;7.192;2022-12-18T17:37:16;-0.10;99.90
35960;DHT22;22043;50.970;7.192;2022-12-18T17:39:41;-0.10;99.90
35960;DHT22;22043;50.970;7.192;2022-12-18T17:42:07;-0.20;99.90
35960;DHT22;22043;50.970;7.192;2022-12-18T17:44:35;-0.20;99.90
35960;DHT22;22043;50.970;7.192;2022-12-18T17:47:01;-0.20;99.90
35960;DHT22;22043;50.970;7.192;2022-12-18T17:49:27;-0.20;99.90
35960;DHT22;22043;50.970;7.192;2022-12-18T17:51:53;-0.10;99.90